sensor_id;sensor_type;location;lat;lon;timestamp;P1;durP1;ratioP1;P2;durP2;ratioP2
32216;SDS011;67098;51.140;4.088;2024-03-22T00:00:17;68.80;;;38.22;;
32216;SDS011;67098;51.140;4.088;2024-03-22T00:02:42;62.72;;;36.97;;
32216;SDS011;67098;51.140;4.088;2024-03-22T00:05:08;63.30;;;35.45;;
32216;SDS011;67098;51.140;4.088;2024-03-22T00:07:34;62.47;;;36.38;;
32216;SDS011;67098;51.140;4.088;2024-03-22T00:10:00;66.18;;;36.08;;
32216;SDS011;67098;51.140;4.088;2024-03-22T00:12:26;57.95;;;34.80;;
32216;SDS011;67098;51.140;4.088;2024-03-22T00:14:51;58.63;;;33.30;;
32216;SDS011;67098;51.140;4.088;2024-03-22T00:17:19;58.90;;;33.60;;
32216;SDS011;67098;51.140;4.088;2024-03-22T00:19:46;61.03;;;34.58;;
32216;SDS011;67098;51.140;4.088;2024-03-22T00:22:11;55.00;;;31.48;;
32216;SDS011;67098;51.140;4.088;2024-03-22T00:24:37;50.95;;;30.20;;
32216;SDS011;67098;51.140;4.088;2024-03-22T00:27:03;53.78;;;30.50;;
32216;SDS011;67098;51.140;4.088;2024-03-22T00:29:29;52.50;;;30.42;;
32216;SDS011;67098;51.140;4.088;2024-03-22T00:31:55;56.38;;;29.88;;
32216;SDS011;67098;51.140;4.088;2024-03-22T00:34:20;54.60;;;30.73;;
32216;SDS011;67098;51.140;4.088;2024-03-22T00:36:46;50.95;;;29.50;;
32216;SDS011;67098;51.140;4.088;2024-03-22T00:39:12;50.55;;;29.02;;
32216;SDS011;67098;51.140;4.088;2024-03-22T00:41:38;50.78;;;29.52;;
32216;SDS011;67098;51.140;4.088;2024-03-22T00:44:04;49.08;;;28.35;;
32216;SDS011;67098;51.140;4.088;2024-03-22T00:46:30;54.30;;;29.60;;
32216;SDS011;67098;51.140;4.088;2024-03-22T00:48:56;46.83;;;28.90;;
32216;SDS011;67098;51.140;4.088;2024-03-22T00:51:23;54.92;;;29.17;;
32216;SDS011;67098;51.140;4.088;2024-03-22T00:53:50;50.45;;;29.98;;
32216;SDS011;67098;51.140;4.088;2024-03-22T00:56:16;48.00;;;30.15;;
32216;SDS011;67098;51.140;4.088;2024-03-22T00:58:42;56.15;;;28.52;;
32216;SDS011;67098;51.140;4.088;2024-03-22T01:01:08;49.65;;;29.50;;
32216;SDS011;67098;51.140;4.088;2024-03-22T01:03:33;50.35;;;28.30;;
32216;SDS011;67098;51.140;4.088;2024-03-22T01:05:59;56.97;;;29.02;;
32216;SDS011;67098;51.140;4.088;2024-03-22T01:08:25;48.60;;;27.70;;
32216;SDS011;67098;51.140;4.088;2024-03-22T01:10:52;52.58;;;28.25;;
32216;SDS011;67098;51.140;4.088;2024-03-22T01:13:18;50.35;;;28.75;;
32216;SDS011;67098;51.140;4.088;2024-03-22T01:15:44;51.42;;;27.70;;
32216;SDS011;67098;51.140;4.088;2024-03-22T01:18:11;51.80;;;26.52;;
32216;SDS011;67098;51.140;4.088;2024-03-22T01:20:37;44.20;;;26.10;;
32216;SDS011;67098;51.140;4.088;2024-03-22T01:23:03;47.67;;;24.48;;
32216;SDS011;67098;51.140;4.088;2024-03-22T01:25:29;47.75;;;26.23;;
32216;SDS011;67098;51.140;4.088;2024-03-22T01:27:55;44.10;;;24.02;;
32216;SDS011;67098;51.140;4.088;2024-03-22T01:30:22;44.72;;;23.48;;
32216;SDS011;67098;51.140;4.088;2024-03-22T01:32:47;44.50;;;24.38;;
32216;SDS011;67098;51.140;4.088;2024-03-22T01:35:13;41.88;;;22.27;;
32216;SDS011;67098;51.140;4.088;2024-03-22T01:37:39;41.55;;;21.85;;
32216;SDS011;67098;51.140;4.088;2024-03-22T01:40:05;43.13;;;20.88;;
32216;SDS011;67098;51.140;4.088;2024-03-22T01:42:31;38.83;;;20.95;;
32216;SDS011;67098;51.140;4.088;2024-03-22T01:44:57;38.60;;;20.17;;
32216;SDS011;67098;51.140;4.088;2024-03-22T01:47:23;43.88;;;20.55;;
32216;SDS011;67098;51.140;4.088;2024-03-22T01:49:50;37.88;;;20.13;;
32216;SDS011;67098;51.140;4.088;2024-03-22T01:52:19;39.97;;;20.70;;
32216;SDS011;67098;51.140;4.088;2024-03-22T01:54:45;38.78;;;21.27;;
32216;SDS011;67098;51.140;4.088;2024-03-22T01:57:11;39.95;;;22.02;;
32216;SDS011;67098;51.140;4.088;2024-03-22T01:59:36;41.83;;;22.85;;
32216;SDS011;67098;51.140;4.088;2024-03-22T02:02:03;44.08;;;21.67;;
32216;SDS011;67098;51.140;4.088;2024-03-22T02:04:30;42.22;;;21.48;;
32216;SDS011;67098;51.140;4.088;2024-03-22T02:06:55;38.45;;;20.17;;
32216;SDS011;67098;51.140;4.088;2024-03-22T02:09:21;42.78;;;22.10;;
32216;SDS011;67098;51.140;4.088;2024-03-22T02:11:47;47.80;;;22.90;;
32216;SDS011;67098;51.140;4.088;2024-03-22T02:14:13;49.58;;;22.42;;
32216;SDS011;67098;51.140;4.088;2024-03-22T02:16:42;45.03;;;21.40;;
32216;SDS011;67098;51.140;4.088;2024-03-22T02:19:08;42.05;;;22.08;;
32216;SDS011;67098;51.140;4.088;2024-03-22T02:21:34;47.83;;;23.70;;
32216;SDS011;67098;51.140;4.088;2024-03-22T02:24:00;49.78;;;22.90;;
32216;SDS011;67098;51.140;4.088;2024-03-22T02:26:26;46.13;;;24.33;;
32216;SDS011;67098;51.140;4.088;2024-03-22T02:28:51;51.05;;;23.27;;
32216;SDS011;67098;51.140;4.088;2024-03-22T02:31:17;49.05;;;23.00;;
32216;SDS011;67098;51.140;4.088;2024-03-22T02:33:45;45.63;;;22.25;;
32216;SDS011;67098;51.140;4.088;2024-03-22T02:36:11;46.65;;;22.77;;
32216;SDS011;67098;51.140;4.088;2024-03-22T02:38:36;46.75;;;23.35;;
32216;SDS011;67098;51.140;4.088;2024-03-22T02:41:02;50.97;;;23.35;;
32216;SDS011;67098;51.140;4.088;2024-03-22T02:43:28;47.00;;;23.08;;
32216;SDS011;67098;51.140;4.088;2024-03-22T02:45:54;51.50;;;23.40;;
32216;SDS011;67098;51.140;4.088;2024-03-22T02:48:20;48.97;;;23.20;;
32216;SDS011;67098;51.140;4.088;2024-03-22T02:50:46;47.20;;;23.13;;
32216;SDS011;67098;51.140;4.088;2024-03-22T02:53:11;45.45;;;23.90;;
32216;SDS011;67098;51.140;4.088;2024-03-22T02:55:38;46.13;;;22.48;;
32216;SDS011;67098;51.140;4.088;2024-03-22T02:58:04;53.15;;;24.50;;
32216;SDS011;67098;51.140;4.088;2024-03-22T03:00:31;51.05;;;23.42;;
32216;SDS011;67098;51.140;4.088;2024-03-22T03:03:00;49.85;;;22.80;;
32216;SDS011;67098;51.140;4.088;2024-03-22T03:05:26;53.10;;;25.67;;
32216;SDS011;67098;51.140;4.088;2024-03-22T03:07:51;47.08;;;24.27;;
32216;SDS011;67098;51.140;4.088;2024-03-22T03:10:17;47.58;;;23.92;;
32216;SDS011;67098;51.140;4.088;2024-03-22T03:12:43;48.97;;;24.10;;
32216;SDS011;67098;51.140;4.088;2024-03-22T03:15:09;47.67;;;22.45;;
32216;SDS011;67098;51.140;4.088;2024-03-22T03:17:34;47.20;;;22.52;;
32216;SDS011;67098;51.140;4.088;2024-03-22T03:20:00;42.42;;;20.98;;
32216;SDS011;67098;51.140;4.088;2024-03-22T03:22:26;37.95;;;20.17;;
32216;SDS011;67098;51.140;4.088;2024-03-22T03:24:51;39.05;;;20.30;;
32216;SDS011;67098;51.140;4.088;2024-03-22T03:27:17;35.92;;;19.10;;
32216;SDS011;67098;51.140;4.088;2024-03-22T03:29:43;34.28;;;17.77;;
32216;SDS011;67098;51.140;4.088;2024-03-22T03:32:09;38.05;;;19.38;;
32216;SDS011;67098;51.140;4.088;2024-03-22T03:34:35;33.80;;;18.05;;
32216;SDS011;67098;51.140;4.088;2024-03-22T03:37:01;31.40;;;17.58;;
32216;SDS011;67098;51.140;4.088;2024-03-22T03:39:27;35.33;;;19.10;;
32216;SDS011;67098;51.140;4.088;2024-03-22T03:41:54;32.47;;;17.13;;
32216;SDS011;67098;51.140;4.088;2024-03-22T03:44:20;35.85;;;18.10;;
32216;SDS011;67098;51.140;4.088;2024-03-22T03:46:46;29.92;;;16.75;;
32216;SDS011;67098;51.140;4.088;2024-03-22T03:49:12;33.17;;;18.13;;
32216;SDS011;67098;51.140;4.088;2024-03-22T03:51:37;30.13;;;17.42;;
32216;SDS011;67098;51.140;4.088;2024-03-22T03:54:03;33.83;;;19.38;;
32216;SDS011;67098;51.140;4.088;2024-03-22T03:56:29;31.85;;;17.75;;
32216;SDS011;67098;51.140;4.088;2024-03-22T03:58:55;35.67;;;18.42;;
32216;SDS011;67098;51.140;4.088;2024-03-22T04:01:21;29.35;;;16.92;;
32216;SDS011;67098;51.140;4.088;2024-03-22T04:03:48;33.15;;;18.35;;
32216;SDS011;67098;51.140;4.088;2024-03-22T04:06:14;33.28;;;17.83;;
32216;SDS011;67098;51.140;4.088;2024-03-22T04:08:40;31.00;;;17.88;;
32216;SDS011;67098;51.140;4.088;2024-03-22T04:11:05;34.92;;;18.90;;
32216;SDS011;67098;51.140;4.088;2024-03-22T04:13:31;36.20;;;20.15;;
32216;SDS011;67098;51.140;4.088;2024-03-22T04:15:58;33.53;;;19.50;;
32216;SDS011;67098;51.140;4.088;2024-03-22T04:18:24;32.50;;;19.02;;
32216;SDS011;67098;51.140;4.088;2024-03-22T04:20:54;38.30;;;19.63;;
32216;SDS011;67098;51.140;4.088;2024-03-22T04:23:20;35.80;;;19.65;;
32216;SDS011;67098;51.140;4.088;2024-03-22T04:25:56;33.60;;;18.83;;
32216;SDS011;67098;51.140;4.088;2024-03-22T04:28:26;35.47;;;18.83;;
32216;SDS011;67098;51.140;4.088;2024-03-22T04:33:33;33.83;;;18.80;;
32216;SDS011;67098;51.140;4.088;2024-03-22T04:35:59;32.13;;;18.67;;
32216;SDS011;67098;51.140;4.088;2024-03-22T04:38:26;33.30;;;18.42;;
32216;SDS011;67098;51.140;4.088;2024-03-22T04:40:52;35.70;;;18.33;;
32216;SDS011;67098;51.140;4.088;2024-03-22T04:43:19;32.42;;;18.10;;
32216;SDS011;67098;51.140;4.088;2024-03-22T04:45:46;33.22;;;18.75;;
32216;SDS011;67098;51.140;4.088;2024-03-22T04:48:13;34.35;;;18.77;;
32216;SDS011;67098;51.140;4.088;2024-03-22T04:50:40;32.55;;;17.77;;
32216;SDS011;67098;51.140;4.088;2024-03-22T04:53:06;31.70;;;17.27;;
32216;SDS011;67098;51.140;4.088;2024-03-22T04:55:32;32.03;;;17.15;;
32216;SDS011;67098;51.140;4.088;2024-03-22T04:57:58;31.70;;;17.98;;
32216;SDS011;67098;51.140;4.088;2024-03-22T05:00:24;34.38;;;18.23;;
32216;SDS011;67098;51.140;4.088;2024-03-22T05:02:50;32.13;;;18.15;;
32216;SDS011;67098;51.140;4.088;2024-03-22T05:05:17;32.10;;;18.58;;
32216;SDS011;67098;51.140;4.088;2024-03-22T05:07:43;35.88;;;17.95;;
32216;SDS011;67098;51.140;4.088;2024-03-22T05:10:09;33.28;;;17.77;;
32216;SDS011;67098;51.140;4.088;2024-03-22T05:12:36;32.30;;;18.38;;
32216;SDS011;67098;51.140;4.088;2024-03-22T05:15:02;30.73;;;17.08;;
32216;SDS011;67098;51.140;4.088;2024-03-22T05:17:29;29.02;;;16.85;;
32216;SDS011;67098;51.140;4.088;2024-03-22T05:19:57;29.48;;;16.27;;
32216;SDS011;67098;51.140;4.088;2024-03-22T05:22:23;29.27;;;16.73;;
32216;SDS011;67098;51.140;4.088;2024-03-22T05:24:49;28.55;;;16.30;;
32216;SDS011;67098;51.140;4.088;2024-03-22T05:27:14;30.88;;;17.98;;
32216;SDS011;67098;51.140;4.088;2024-03-22T05:29:40;30.25;;;16.23;;
32216;SDS011;67098;51.140;4.088;2024-03-22T05:32:06;30.17;;;16.20;;
32216;SDS011;67098;51.140;4.088;2024-03-22T05:34:32;28.35;;;15.75;;
32216;SDS011;67098;51.140;4.088;2024-03-22T05:36:57;30.38;;;16.55;;
32216;SDS011;67098;51.140;4.088;2024-03-22T05:39:24;29.30;;;16.13;;
32216;SDS011;67098;51.140;4.088;2024-03-22T05:41:49;28.95;;;16.60;;
32216;SDS011;67098;51.140;4.088;2024-03-22T05:44:15;31.73;;;16.23;;
32216;SDS011;67098;51.140;4.088;2024-03-22T05:46:42;31.00;;;17.58;;
32216;SDS011;67098;51.140;4.088;2024-03-22T05:49:08;27.10;;;16.17;;
32216;SDS011;67098;51.140;4.088;2024-03-22T05:51:33;31.73;;;16.08;;
32216;SDS011;67098;51.140;4.088;2024-03-22T05:53:59;28.35;;;16.48;;
32216;SDS011;67098;51.140;4.088;2024-03-22T05:56:25;32.33;;;15.73;;
32216;SDS011;67098;51.140;4.088;2024-03-22T05:58:51;28.13;;;15.60;;
32216;SDS011;67098;51.140;4.088;2024-03-22T06:01:16;30.00;;;14.88;;
32216;SDS011;67098;51.140;4.088;2024-03-22T06:03:42;29.58;;;15.38;;
32216;SDS011;67098;51.140;4.088;2024-03-22T06:06:08;29.48;;;16.02;;
32216;SDS011;67098;51.140;4.088;2024-03-22T06:08:34;31.58;;;15.75;;
32216;SDS011;67098;51.140;4.088;2024-03-22T06:11:00;28.17;;;15.13;;
32216;SDS011;67098;51.140;4.088;2024-03-22T06:13:26;31.13;;;15.52;;
32216;SDS011;67098;51.140;4.088;2024-03-22T06:15:52;28.02;;;16.13;;
32216;SDS011;67098;51.140;4.088;2024-03-22T06:18:18;27.60;;;14.60;;
32216;SDS011;67098;51.140;4.088;2024-03-22T06:20:44;29.48;;;15.65;;
32216;SDS011;67098;51.140;4.088;2024-03-22T06:23:09;23.15;;;14.40;;
32216;SDS011;67098;51.140;4.088;2024-03-22T06:25:36;25.77;;;13.48;;
32216;SDS011;67098;51.140;4.088;2024-03-22T06:28:02;26.75;;;14.02;;
32216;SDS011;67098;51.140;4.088;2024-03-22T06:30:28;27.75;;;13.63;;
32216;SDS011;67098;51.140;4.088;2024-03-22T06:32:54;22.50;;;13.13;;
32216;SDS011;67098;51.140;4.088;2024-03-22T06:35:22;24.02;;;14.20;;
32216;SDS011;67098;51.140;4.088;2024-03-22T06:37:48;21.88;;;13.20;;
32216;SDS011;67098;51.140;4.088;2024-03-22T06:40:14;24.25;;;13.30;;
32216;SDS011;67098;51.140;4.088;2024-03-22T06:42:40;24.00;;;13.43;;
32216;SDS011;67098;51.140;4.088;2024-03-22T06:45:06;20.83;;;12.35;;
32216;SDS011;67098;51.140;4.088;2024-03-22T06:47:32;24.08;;;13.35;;
32216;SDS011;67098;51.140;4.088;2024-03-22T06:49:58;19.77;;;11.88;;
32216;SDS011;67098;51.140;4.088;2024-03-22T06:52:24;22.17;;;12.30;;
32216;SDS011;67098;51.140;4.088;2024-03-22T06:54:50;17.23;;;11.07;;
32216;SDS011;67098;51.140;4.088;2024-03-22T06:57:16;18.17;;;12.10;;
32216;SDS011;67098;51.140;4.088;2024-03-22T06:59:42;20.02;;;10.75;;
32216;SDS011;67098;51.140;4.088;2024-03-22T07:02:07;14.30;;;9.98;;
32216;SDS011;67098;51.140;4.088;2024-03-22T07:04:34;17.75;;;10.25;;
32216;SDS011;67098;51.140;4.088;2024-03-22T07:07:01;16.98;;;10.45;;
32216;SDS011;67098;51.140;4.088;2024-03-22T07:09:26;18.75;;;8.73;;
32216;SDS011;67098;51.140;4.088;2024-03-22T07:11:54;17.38;;;9.88;;
32216;SDS011;67098;51.140;4.088;2024-03-22T07:14:20;21.50;;;10.23;;
32216;SDS011;67098;51.140;4.088;2024-03-22T07:16:49;13.77;;;9.63;;
32216;SDS011;67098;51.140;4.088;2024-03-22T07:19:15;14.75;;;9.52;;
32216;SDS011;67098;51.140;4.088;2024-03-22T07:21:41;18.38;;;11.05;;
32216;SDS011;67098;51.140;4.088;2024-03-22T07:24:07;16.92;;;10.63;;
32216;SDS011;67098;51.140;4.088;2024-03-22T07:26:33;17.60;;;10.65;;
32216;SDS011;67098;51.140;4.088;2024-03-22T07:28:58;21.65;;;12.30;;
32216;SDS011;67098;51.140;4.088;2024-03-22T07:31:24;23.10;;;13.20;;
32216;SDS011;67098;51.140;4.088;2024-03-22T07:33:50;38.15;;;17.52;;
32216;SDS011;67098;51.140;4.088;2024-03-22T07:36:18;24.75;;;15.25;;
32216;SDS011;67098;51.140;4.088;2024-03-22T07:38:44;21.63;;;11.43;;
32216;SDS011;67098;51.140;4.088;2024-03-22T07:41:10;17.13;;;10.23;;
32216;SDS011;67098;51.140;4.088;2024-03-22T07:43:36;16.58;;;9.27;;
32216;SDS011;67098;51.140;4.088;2024-03-22T07:46:02;13.40;;;8.48;;
32216;SDS011;67098;51.140;4.088;2024-03-22T07:48:27;15.57;;;9.05;;
32216;SDS011;67098;51.140;4.088;2024-03-22T07:51:00;18.10;;;8.55;;
32216;SDS011;67098;51.140;4.088;2024-03-22T07:53:26;14.35;;;8.20;;
32216;SDS011;67098;51.140;4.088;2024-03-22T07:55:52;11.93;;;8.20;;
32216;SDS011;67098;51.140;4.088;2024-03-22T07:58:18;12.88;;;8.35;;
32216;SDS011;67098;51.140;4.088;2024-03-22T08:00:44;15.10;;;8.98;;
32216;SDS011;67098;51.140;4.088;2024-03-22T08:03:14;18.10;;;8.70;;
32216;SDS011;67098;51.140;4.088;2024-03-22T08:05:41;14.80;;;8.73;;
32216;SDS011;67098;51.140;4.088;2024-03-22T08:08:07;18.65;;;8.75;;
32216;SDS011;67098;51.140;4.088;2024-03-22T08:10:33;14.75;;;8.73;;
32216;SDS011;67098;51.140;4.088;2024-03-22T08:12:59;17.23;;;9.05;;
32216;SDS011;67098;51.140;4.088;2024-03-22T08:15:25;14.70;;;8.32;;
32216;SDS011;67098;51.140;4.088;2024-03-22T08:17:52;13.48;;;8.57;;
32216;SDS011;67098;51.140;4.088;2024-03-22T08:20:18;20.08;;;10.60;;
32216;SDS011;67098;51.140;4.088;2024-03-22T08:22:45;17.40;;;10.13;;
32216;SDS011;67098;51.140;4.088;2024-03-22T08:25:11;15.55;;;9.07;;
32216;SDS011;67098;51.140;4.088;2024-03-22T08:27:37;18.00;;;9.85;;
32216;SDS011;67098;51.140;4.088;2024-03-22T08:30:03;19.73;;;9.55;;
32216;SDS011;67098;51.140;4.088;2024-03-22T08:32:29;20.08;;;9.75;;
32216;SDS011;67098;51.140;4.088;2024-03-22T08:34:55;20.73;;;8.57;;
32216;SDS011;67098;51.140;4.088;2024-03-22T08:37:21;22.23;;;9.50;;
32216;SDS011;67098;51.140;4.088;2024-03-22T08:39:46;19.25;;;9.18;;
32216;SDS011;67098;51.140;4.088;2024-03-22T08:42:12;15.13;;;8.38;;
32216;SDS011;67098;51.140;4.088;2024-03-22T08:44:38;19.63;;;8.27;;
32216;SDS011;67098;51.140;4.088;2024-03-22T08:47:04;18.98;;;8.57;;
32216;SDS011;67098;51.140;4.088;2024-03-22T08:49:29;22.33;;;9.57;;
32216;SDS011;67098;51.140;4.088;2024-03-22T08:51:55;19.05;;;9.00;;
32216;SDS011;67098;51.140;4.088;2024-03-22T08:54:21;13.90;;;8.13;;
32216;SDS011;67098;51.140;4.088;2024-03-22T08:56:47;19.23;;;8.75;;
32216;SDS011;67098;51.140;4.088;2024-03-22T08:59:13;17.77;;;8.45;;
32216;SDS011;67098;51.140;4.088;2024-03-22T09:01:38;19.23;;;8.80;;
32216;SDS011;67098;51.140;4.088;2024-03-22T09:04:04;20.42;;;8.10;;
32216;SDS011;67098;51.140;4.088;2024-03-22T09:06:30;17.13;;;8.27;;
32216;SDS011;67098;51.140;4.088;2024-03-22T09:08:56;23.35;;;8.63;;
32216;SDS011;67098;51.140;4.088;2024-03-22T09:11:23;14.10;;;8.20;;
32216;SDS011;67098;51.140;4.088;2024-03-22T09:13:53;20.35;;;7.90;;
32216;SDS011;67098;51.140;4.088;2024-03-22T09:16:22;24.80;;;8.45;;
32216;SDS011;67098;51.140;4.088;2024-03-22T09:18:48;16.50;;;7.97;;
32216;SDS011;67098;51.140;4.088;2024-03-22T09:21:14;20.52;;;8.32;;
32216;SDS011;67098;51.140;4.088;2024-03-22T09:23:40;21.10;;;8.15;;
32216;SDS011;67098;51.140;4.088;2024-03-22T09:26:06;18.17;;;7.75;;
32216;SDS011;67098;51.140;4.088;2024-03-22T09:28:31;14.95;;;8.55;;
32216;SDS011;67098;51.140;4.088;2024-03-22T09:30:57;16.75;;;8.05;;
32216;SDS011;67098;51.140;4.088;2024-03-22T09:33:23;20.25;;;8.02;;
32216;SDS011;67098;51.140;4.088;2024-03-22T09:35:48;20.20;;;7.88;;
32216;SDS011;67098;51.140;4.088;2024-03-22T09:38:14;22.98;;;8.65;;
32216;SDS011;67098;51.140;4.088;2024-03-22T09:40:41;20.45;;;8.50;;
32216;SDS011;67098;51.140;4.088;2024-03-22T09:43:07;15.57;;;7.45;;
32216;SDS011;67098;51.140;4.088;2024-03-22T09:45:33;19.92;;;8.82;;
32216;SDS011;67098;51.140;4.088;2024-03-22T09:47:59;22.60;;;8.40;;
32216;SDS011;67098;51.140;4.088;2024-03-22T09:50:26;18.55;;;8.98;;
32216;SDS011;67098;51.140;4.088;2024-03-22T09:52:52;19.42;;;7.20;;
32216;SDS011;67098;51.140;4.088;2024-03-22T09:55:22;18.70;;;8.10;;
32216;SDS011;67098;51.140;4.088;2024-03-22T09:57:48;18.93;;;7.97;;
32216;SDS011;67098;51.140;4.088;2024-03-22T10:00:16;16.92;;;7.93;;
32216;SDS011;67098;51.140;4.088;2024-03-22T10:02:47;18.63;;;8.23;;
32216;SDS011;67098;51.140;4.088;2024-03-22T10:05:15;18.83;;;7.65;;
32216;SDS011;67098;51.140;4.088;2024-03-22T10:07:43;18.20;;;7.57;;
32216;SDS011;67098;51.140;4.088;2024-03-22T10:10:09;18.95;;;8.02;;
32216;SDS011;67098;51.140;4.088;2024-03-22T10:12:35;21.83;;;8.10;;
32216;SDS011;67098;51.140;4.088;2024-03-22T10:15:02;20.35;;;7.75;;
32216;SDS011;67098;51.140;4.088;2024-03-22T10:17:30;16.35;;;7.78;;
32216;SDS011;67098;51.140;4.088;2024-03-22T10:19:55;22.40;;;8.52;;
32216;SDS011;67098;51.140;4.088;2024-03-22T10:22:21;19.92;;;8.25;;
32216;SDS011;67098;51.140;4.088;2024-03-22T10:24:47;20.85;;;8.23;;
32216;SDS011;67098;51.140;4.088;2024-03-22T10:27:13;21.85;;;8.70;;
32216;SDS011;67098;51.140;4.088;2024-03-22T10:29:39;21.33;;;8.48;;
32216;SDS011;67098;51.140;4.088;2024-03-22T10:32:05;20.20;;;9.05;;
32216;SDS011;67098;51.140;4.088;2024-03-22T10:34:33;20.65;;;9.05;;
32216;SDS011;67098;51.140;4.088;2024-03-22T10:37:00;24.25;;;8.18;;
32216;SDS011;67098;51.140;4.088;2024-03-22T10:39:26;20.98;;;8.50;;
32216;SDS011;67098;51.140;4.088;2024-03-22T10:41:52;19.58;;;7.72;;
32216;SDS011;67098;51.140;4.088;2024-03-22T10:44:18;19.00;;;8.07;;
32216;SDS011;67098;51.140;4.088;2024-03-22T10:46:45;17.85;;;7.97;;
32216;SDS011;67098;51.140;4.088;2024-03-22T10:49:18;23.27;;;9.00;;
32216;SDS011;67098;51.140;4.088;2024-03-22T10:51:58;18.67;;;8.40;;
32216;SDS011;67098;51.140;4.088;2024-03-22T10:54:32;23.27;;;8.75;;
32216;SDS011;67098;51.140;4.088;2024-03-22T10:57:05;21.83;;;8.90;;
32216;SDS011;67098;51.140;4.088;2024-03-22T10:59:35;23.30;;;7.88;;
32216;SDS011;67098;51.140;4.088;2024-03-22T11:02:04;15.00;;;7.57;;
32216;SDS011;67098;51.140;4.088;2024-03-22T11:06:58;23.70;;;8.63;;
32216;SDS011;67098;51.140;4.088;2024-03-22T11:09:27;20.55;;;9.30;;
32216;SDS011;67098;51.140;4.088;2024-03-22T11:11:53;18.40;;;8.70;;
32216;SDS011;67098;51.140;4.088;2024-03-22T11:14:20;17.75;;;8.40;;
32216;SDS011;67098;51.140;4.088;2024-03-22T11:16:47;23.90;;;9.05;;
32216;SDS011;67098;51.140;4.088;2024-03-22T11:19:13;29.35;;;8.93;;
32216;SDS011;67098;51.140;4.088;2024-03-22T11:21:38;24.17;;;9.23;;
32216;SDS011;67098;51.140;4.088;2024-03-22T11:24:04;23.40;;;8.80;;
32216;SDS011;67098;51.140;4.088;2024-03-22T11:26:31;24.13;;;9.10;;
32216;SDS011;67098;51.140;4.088;2024-03-22T11:28:58;22.00;;;8.23;;
32216;SDS011;67098;51.140;4.088;2024-03-22T11:31:24;16.83;;;8.40;;
32216;SDS011;67098;51.140;4.088;2024-03-22T11:33:52;17.38;;;8.60;;
32216;SDS011;67098;51.140;4.088;2024-03-22T11:36:18;17.92;;;8.75;;
32216;SDS011;67098;51.140;4.088;2024-03-22T11:38:44;23.08;;;9.27;;
32216;SDS011;67098;51.140;4.088;2024-03-22T11:41:10;15.00;;;7.72;;
32216;SDS011;67098;51.140;4.088;2024-03-22T11:43:37;19.52;;;8.00;;
32216;SDS011;67098;51.140;4.088;2024-03-22T11:46:03;18.92;;;6.80;;
32216;SDS011;67098;51.140;4.088;2024-03-22T11:48:29;21.05;;;7.38;;
32216;SDS011;67098;51.140;4.088;2024-03-22T11:50:55;20.08;;;7.53;;
32216;SDS011;67098;51.140;4.088;2024-03-22T11:53:21;15.45;;;7.68;;
32216;SDS011;67098;51.140;4.088;2024-03-22T11:55:49;12.75;;;6.90;;
32216;SDS011;67098;51.140;4.088;2024-03-22T11:58:15;16.42;;;6.65;;
32216;SDS011;67098;51.140;4.088;2024-03-22T12:00:43;17.30;;;8.18;;
32216;SDS011;67098;51.140;4.088;2024-03-22T12:03:09;15.38;;;6.78;;
32216;SDS011;67098;51.140;4.088;2024-03-22T12:05:35;20.63;;;8.07;;
32216;SDS011;67098;51.140;4.088;2024-03-22T12:08:01;16.35;;;6.57;;
32216;SDS011;67098;51.140;4.088;2024-03-22T12:10:27;19.98;;;7.13;;
32216;SDS011;67098;51.140;4.088;2024-03-22T12:12:53;23.40;;;7.28;;
32216;SDS011;67098;51.140;4.088;2024-03-22T12:15:19;22.10;;;8.13;;
32216;SDS011;67098;51.140;4.088;2024-03-22T12:17:45;21.13;;;9.05;;
32216;SDS011;67098;51.140;4.088;2024-03-22T12:20:10;21.00;;;8.38;;
32216;SDS011;67098;51.140;4.088;2024-03-22T12:22:36;18.40;;;9.25;;
32216;SDS011;67098;51.140;4.088;2024-03-22T12:25:02;19.48;;;8.57;;
32216;SDS011;67098;51.140;4.088;2024-03-22T12:27:29;23.40;;;9.50;;
32216;SDS011;67098;51.140;4.088;2024-03-22T12:29:55;19.40;;;9.48;;
32216;SDS011;67098;51.140;4.088;2024-03-22T12:32:21;21.75;;;9.10;;
32216;SDS011;67098;51.140;4.088;2024-03-22T12:34:46;20.15;;;8.98;;
32216;SDS011;67098;51.140;4.088;2024-03-22T12:37:13;22.77;;;8.68;;
32216;SDS011;67098;51.140;4.088;2024-03-22T12:39:39;24.90;;;9.05;;
32216;SDS011;67098;51.140;4.088;2024-03-22T12:42:05;20.48;;;9.65;;
32216;SDS011;67098;51.140;4.088;2024-03-22T12:44:31;18.05;;;9.68;;
32216;SDS011;67098;51.140;4.088;2024-03-22T12:46:57;21.25;;;10.00;;
32216;SDS011;67098;51.140;4.088;2024-03-22T12:49:24;20.42;;;10.20;;
32216;SDS011;67098;51.140;4.088;2024-03-22T12:51:50;23.30;;;10.63;;
32216;SDS011;67098;51.140;4.088;2024-03-22T12:54:15;26.27;;;11.18;;
32216;SDS011;67098;51.140;4.088;2024-03-22T12:56:43;18.05;;;10.75;;
32216;SDS011;67098;51.140;4.088;2024-03-22T12:59:10;21.63;;;10.27;;
32216;SDS011;67098;51.140;4.088;2024-03-22T13:01:36;19.98;;;9.52;;
32216;SDS011;67098;51.140;4.088;2024-03-22T13:04:03;22.33;;;11.50;;
32216;SDS011;67098;51.140;4.088;2024-03-22T13:06:28;24.23;;;10.95;;
32216;SDS011;67098;51.140;4.088;2024-03-22T13:08:54;26.92;;;11.70;;
32216;SDS011;67098;51.140;4.088;2024-03-22T13:11:20;28.75;;;11.55;;
32216;SDS011;67098;51.140;4.088;2024-03-22T13:13:46;23.33;;;11.23;;
32216;SDS011;67098;51.140;4.088;2024-03-22T13:16:12;27.15;;;11.45;;
32216;SDS011;67098;51.140;4.088;2024-03-22T13:18:40;28.35;;;11.38;;
32216;SDS011;67098;51.140;4.088;2024-03-22T13:21:06;24.63;;;11.88;;
32216;SDS011;67098;51.140;4.088;2024-03-22T13:23:32;21.92;;;10.73;;
32216;SDS011;67098;51.140;4.088;2024-03-22T13:26:02;24.05;;;11.98;;
32216;SDS011;67098;51.140;4.088;2024-03-22T13:31:04;20.13;;;11.10;;
32216;SDS011;67098;51.140;4.088;2024-03-22T13:33:31;22.63;;;11.77;;
32216;SDS011;67098;51.140;4.088;2024-03-22T13:36:00;22.05;;;11.90;;
32216;SDS011;67098;51.140;4.088;2024-03-22T13:38:26;25.27;;;12.77;;
32216;SDS011;67098;51.140;4.088;2024-03-22T13:40:57;27.17;;;12.38;;
32216;SDS011;67098;51.140;4.088;2024-03-22T13:43:25;24.52;;;13.40;;
32216;SDS011;67098;51.140;4.088;2024-03-22T13:45:52;23.30;;;13.38;;
32216;SDS011;67098;51.140;4.088;2024-03-22T13:48:20;23.95;;;12.65;;
32216;SDS011;67098;51.140;4.088;2024-03-22T13:50:50;23.33;;;12.07;;
32216;SDS011;67098;51.140;4.088;2024-03-22T13:53:19;19.53;;;11.03;;
32216;SDS011;67098;51.140;4.088;2024-03-22T13:55:50;19.20;;;10.75;;
32216;SDS011;67098;51.140;4.088;2024-03-22T13:58:18;21.63;;;11.05;;
32216;SDS011;67098;51.140;4.088;2024-03-22T14:00:44;15.85;;;10.25;;
32216;SDS011;67098;51.140;4.088;2024-03-22T14:03:09;18.83;;;10.35;;
32216;SDS011;67098;51.140;4.088;2024-03-22T14:05:35;17.85;;;10.25;;
32216;SDS011;67098;51.140;4.088;2024-03-22T14:08:01;18.60;;;10.60;;
32216;SDS011;67098;51.140;4.088;2024-03-22T14:10:29;19.98;;;10.18;;
32216;SDS011;67098;51.140;4.088;2024-03-22T14:12:56;20.27;;;11.30;;
32216;SDS011;67098;51.140;4.088;2024-03-22T14:15:23;20.23;;;12.07;;
32216;SDS011;67098;51.140;4.088;2024-03-22T14:17:53;24.20;;;13.73;;
32216;SDS011;67098;51.140;4.088;2024-03-22T14:20:20;27.73;;;15.15;;
32216;SDS011;67098;51.140;4.088;2024-03-22T14:22:46;22.25;;;14.85;;
32216;SDS011;67098;51.140;4.088;2024-03-22T14:25:12;25.08;;;14.32;;
32216;SDS011;67098;51.140;4.088;2024-03-22T14:27:38;22.25;;;14.93;;